createdAt,value
2022-10-19T00:00:33.604Z,2.70
2022-10-19T00:03:01.219Z,2.80
2022-10-19T00:05:29.030Z,2.80
2022-10-19T00:07:56.549Z,2.40
2022-10-19T00:10:25.336Z,2.47
2022-10-19T00:12:52.924Z,2.70
2022-10-19T00:15:21.177Z,2.70
2022-10-19T00:17:48.731Z,2.70
2022-10-19T00:20:16.350Z,2.40
2022-10-19T00:22:43.814Z,2.97
2022-10-19T00:25:11.316Z,2.40
2022-10-19T00:27:40.175Z,2.47
2022-10-19T00:30:08.902Z,2.63
2022-10-19T00:32:36.489Z,2.30
2022-10-19T00:35:04.380Z,2.53
2022-10-19T00:37:31.920Z,2.67
2022-10-19T00:39:59.441Z,3.00
2022-10-19T00:42:27.119Z,2.57
2022-10-19T00:45:17.127Z,2.70
2022-10-19T00:47:45.882Z,2.80
2022-10-19T00:50:17.315Z,2.20
2022-10-19T00:52:44.913Z,2.10
2022-10-19T00:55:13.043Z,2.53
2022-10-19T00:57:40.884Z,2.70
2022-10-19T01:00:09.951Z,2.20
2022-10-19T01:02:39.030Z,2.37
2022-10-19T01:05:08.319Z,2.23
2022-10-19T01:07:36.063Z,2.47
2022-10-19T01:10:04.615Z,2.60
2022-10-19T01:12:52.621Z,2.50
2022-10-19T01:15:31.071Z,2.30
2022-10-19T01:18:06.895Z,2.20
2022-10-19T01:20:47.706Z,1.87
2022-10-19T01:23:39.753Z,2.10
2022-10-19T01:26:23.775Z,2.10
2022-10-19T01:29:06.081Z,2.10
2022-10-19T01:31:45.720Z,2.10
2022-10-19T01:34:20.465Z,1.90
2022-10-19T01:37:01.819Z,2.20
2022-10-19T01:39:40.560Z,1.67
2022-10-19T01:42:13.802Z,1.60
2022-10-19T01:44:48.735Z,1.80
2022-10-19T01:47:24.005Z,1.93
2022-10-19T01:49:56.578Z,1.83
2022-10-19T01:52:26.674Z,1.40
2022-10-19T01:54:57.298Z,1.90
2022-10-19T01:57:29.203Z,1.50
2022-10-19T01:59:58.809Z,1.83
2022-10-19T02:02:29.131Z,2.00
2022-10-19T02:04:58.669Z,2.13
2022-10-19T02:07:26.791Z,1.40
2022-10-19T02:09:54.387Z,1.70
2022-10-19T02:12:22.766Z,1.70
2022-10-19T02:14:57.530Z,1.70
2022-10-19T02:17:29.715Z,1.47
2022-10-19T02:19:58.776Z,1.60
2022-10-19T02:22:26.398Z,1.60
2022-10-19T02:24:53.887Z,1.70
2022-10-19T02:27:21.778Z,2.00
2022-10-19T02:29:49.377Z,1.60
2022-10-19T02:32:17.039Z,1.83
2022-10-19T02:34:45.977Z,1.80
2022-10-19T02:37:13.672Z,2.10
2022-10-19T02:39:41.471Z,1.93
2022-10-19T02:42:13.072Z,1.73
2022-10-19T02:44:45.022Z,1.97
2022-10-19T02:47:19.015Z,1.80
2022-10-19T02:49:49.650Z,1.70
2022-10-19T02:52:17.275Z,1.80
2022-10-19T02:54:45.735Z,1.90
2022-10-19T02:57:17.844Z,1.80
2022-10-19T02:59:45.542Z,1.60
2022-10-19T03:02:13.201Z,2.20
2022-10-19T03:04:41.631Z,1.80
2022-10-19T03:07:11.461Z,1.77
2022-10-19T03:09:38.968Z,1.80
2022-10-19T03:12:06.820Z,2.30
2022-10-19T03:14:35.039Z,1.90
2022-10-19T03:17:02.674Z,1.77
2022-10-19T03:19:30.270Z,1.67
2022-10-19T03:21:57.962Z,2.07
2022-10-19T03:24:27.126Z,1.73
2022-10-19T03:26:54.659Z,2.03
2022-10-19T03:29:22.152Z,1.97
2022-10-19T03:31:50.033Z,1.90
2022-10-19T03:34:17.620Z,1.53
2022-10-19T03:36:45.175Z,1.80
2022-10-19T03:39:15.581Z,1.70
2022-10-19T03:41:44.793Z,2.00
2022-10-19T03:44:12.933Z,1.97
2022-10-19T03:46:41.119Z,1.40
2022-10-19T03:49:09.513Z,1.53
2022-10-19T03:51:37.281Z,1.13
2022-10-19T03:54:07.371Z,0.93
2022-10-19T03:56:36.300Z,1.10
2022-10-19T03:59:07.299Z,1.10
2022-10-19T04:01:37.476Z,1.23
2022-10-19T04:04:07.286Z,0.93
2022-10-19T04:06:37.063Z,0.80
2022-10-19T04:09:05.927Z,0.90
2022-10-19T04:11:35.046Z,1.03
2022-10-19T04:14:03.684Z,0.97
2022-10-19T04:16:33.264Z,0.80
2022-10-19T04:19:01.526Z,0.80
2022-10-19T04:21:30.692Z,0.90
2022-10-19T04:24:01.187Z,1.00
2022-10-19T04:26:29.548Z,0.80
2022-10-19T04:28:58.556Z,0.80
2022-10-19T04:31:26.763Z,0.80
2022-10-19T04:33:56.180Z,0.77
2022-10-19T04:36:24.129Z,0.97
2022-10-19T04:38:51.774Z,1.03
2022-10-19T04:41:21.972Z,1.30
2022-10-19T04:43:49.816Z,1.23
2022-10-19T04:46:19.390Z,0.90
2022-10-19T04:48:48.401Z,0.83
2022-10-19T04:51:18.236Z,0.60
2022-10-19T04:53:45.922Z,1.00
2022-10-19T04:56:16.194Z,1.10
2022-10-19T04:58:44.455Z,0.60
2022-10-19T05:01:14.854Z,1.20
2022-10-19T05:03:42.738Z,0.77
2022-10-19T05:06:11.682Z,1.00
2022-10-19T05:08:41.605Z,1.00
2022-10-19T05:11:11.324Z,0.90
2022-10-19T05:13:39.430Z,0.87
2022-10-19T05:16:11.106Z,1.03
2022-10-19T05:18:38.681Z,1.00
2022-10-19T05:21:08.492Z,0.80
2022-10-19T05:23:36.215Z,1.50
2022-10-19T05:26:07.293Z,1.00
2022-10-19T05:28:35.904Z,1.10
2022-10-19T05:31:09.458Z,1.07
2022-10-19T05:33:37.561Z,0.53
2022-10-19T05:36:16.761Z,1.37
2022-10-19T05:38:45.098Z,0.93
2022-10-19T05:41:14.836Z,0.80
2022-10-19T05:43:43.505Z,0.77
2022-10-19T05:46:12.698Z,1.00
2022-10-19T05:48:41.331Z,1.30
2022-10-19T05:51:11.574Z,0.77
2022-10-19T05:53:39.714Z,0.83
2022-10-19T05:56:09.633Z,0.70
2022-10-19T05:58:38.765Z,1.07
2022-10-19T06:01:06.943Z,1.10
2022-10-19T06:03:34.671Z,0.87
2022-10-19T06:06:04.380Z,0.93
2022-10-19T06:08:32.243Z,0.97
2022-10-19T06:11:07.445Z,0.80
2022-10-19T06:13:36.009Z,1.00
2022-10-19T06:16:05.955Z,0.70
2022-10-19T06:18:33.706Z,0.97
2022-10-19T06:21:04.028Z,1.10
2022-10-19T06:23:32.022Z,0.87
2022-10-19T06:26:00.497Z,0.67
2022-10-19T06:28:28.236Z,0.93
2022-10-19T06:30:55.957Z,1.20
2022-10-19T06:33:25.069Z,1.00
2022-10-19T06:35:52.704Z,0.93
2022-10-19T06:38:20.577Z,1.00
2022-10-19T06:40:49.137Z,1.00
2022-10-19T06:43:17.175Z,0.93
2022-10-19T06:45:44.830Z,1.00
2022-10-19T06:48:12.585Z,1.00
2022-10-19T06:50:41.581Z,0.90
2022-10-19T06:53:09.305Z,0.77
2022-10-19T06:55:37.710Z,1.00
2022-10-19T06:58:05.412Z,0.90
2022-10-19T07:00:33.149Z,0.90
2022-10-19T07:03:01.080Z,1.00
2022-10-19T07:05:28.608Z,1.10
2022-10-19T07:07:58.253Z,1.10
2022-10-19T07:10:26.035Z,0.70
2022-10-19T07:12:53.617Z,1.00
2022-10-19T07:15:21.131Z,1.03
2022-10-19T07:17:48.631Z,1.37
2022-10-19T07:20:16.213Z,1.30
2022-10-19T07:22:43.837Z,1.20
2022-10-19T07:25:12.644Z,0.77
2022-10-19T07:27:40.624Z,1.30
2022-10-19T07:30:09.814Z,1.00
2022-10-19T07:32:37.635Z,0.90
2022-10-19T07:35:14.981Z,0.97
2022-10-19T07:37:43.493Z,1.10
2022-10-19T07:40:33.217Z,1.90
2022-10-19T07:43:01.554Z,0.80
2022-10-19T07:45:44.203Z,0.60
2022-10-19T07:51:16.992Z,1.00
2022-10-19T07:53:54.370Z,0.70
2022-10-19T07:56:31.339Z,0.80
2022-10-19T07:59:10.455Z,0.97
2022-10-19T08:01:45.524Z,0.80
2022-10-19T08:04:59.072Z,0.80
2022-10-19T08:09:53.989Z,1.03
2022-10-19T08:12:27.076Z,1.20
2022-10-19T08:14:56.884Z,0.93
2022-10-19T08:17:26.642Z,1.00
2022-10-19T08:19:55.414Z,0.90
2022-10-19T08:22:26.471Z,1.20
2022-10-19T08:24:55.618Z,0.83
2022-10-19T08:27:25.972Z,0.77
2022-10-19T08:29:56.257Z,1.87
2022-10-19T08:32:26.667Z,0.97
2022-10-19T08:34:57.280Z,1.07
2022-10-19T08:40:22.654Z,1.07
2022-10-19T08:46:21.039Z,1.33
2022-10-19T08:48:52.628Z,1.50
2022-10-19T08:51:23.198Z,1.10
2022-10-19T08:54:01.461Z,1.00
2022-10-19T08:56:50.539Z,0.93
2022-10-19T08:59:34.164Z,1.00
2022-10-19T09:02:14.057Z,1.30
2022-10-19T09:04:45.512Z,1.10
2022-10-19T09:07:28.286Z,3.57
2022-10-19T09:10:00.650Z,1.40
2022-10-19T09:12:43.744Z,1.27
2022-10-19T09:15:17.100Z,1.30
2022-10-19T09:17:46.794Z,1.20
2022-10-19T09:20:18.711Z,0.93
2022-10-19T09:22:48.156Z,1.10
2022-10-19T09:25:22.377Z,1.13
2022-10-19T09:30:40.209Z,1.47
2022-10-19T09:33:22.457Z,1.87
2022-10-19T09:35:52.603Z,3.43
2022-10-19T09:38:28.053Z,1.50
2022-10-19T09:40:58.308Z,1.00
2022-10-19T09:43:34.611Z,1.27
2022-10-19T09:49:13.610Z,2.13
2022-10-19T09:51:51.092Z,1.13
2022-10-19T09:54:29.115Z,2.10
2022-10-19T09:57:00.678Z,1.40
2022-10-19T09:59:32.328Z,1.37
2022-10-19T10:02:06.578Z,0.50
2022-10-19T10:07:44.432Z,1.40
2022-10-19T10:10:25.531Z,1.13
2022-10-19T10:12:59.218Z,1.70
2022-10-19T10:15:31.001Z,1.83
2022-10-19T10:18:10.227Z,1.00
2022-10-19T10:20:59.669Z,0.70
2022-10-19T10:23:31.646Z,1.07
2022-10-19T10:26:02.095Z,0.50
2022-10-19T10:28:32.312Z,0.70
2022-10-19T10:31:05.119Z,0.60
2022-10-19T10:33:44.737Z,0.60
2022-10-19T10:36:16.891Z,0.60
2022-10-19T10:38:56.379Z,0.53
2022-10-19T10:41:30.215Z,0.60
2022-10-19T10:44:04.752Z,0.70
2022-10-19T10:46:35.898Z,0.80
2022-10-19T10:49:07.330Z,0.60
2022-10-19T10:51:45.653Z,0.77
2022-10-19T10:57:14.168Z,1.10
2022-10-19T11:00:16.262Z,1.63
2022-10-19T11:02:53.889Z,0.50
2022-10-19T11:22:00.097Z,1.10
2022-10-19T11:24:43.868Z,0.97
2022-10-19T11:27:38.276Z,0.80
2022-10-19T11:30:17.700Z,0.40
2022-10-19T11:33:02.566Z,0.30
2022-10-19T11:35:55.131Z,0.50
2022-10-19T11:38:43.155Z,0.83
2022-10-19T11:41:19.545Z,1.00
2022-10-19T11:46:59.985Z,0.80
2022-10-19T11:49:43.256Z,0.57
2022-10-19T11:52:21.784Z,0.77
2022-10-19T11:55:21.141Z,0.83
2022-10-19T11:58:15.981Z,0.57
2022-10-19T12:01:03.494Z,0.60
2022-10-19T12:04:09.572Z,0.50
2022-10-19T12:06:48.584Z,0.70
2022-10-19T12:09:36.992Z,0.77
2022-10-19T12:12:23.642Z,1.00
2022-10-19T12:15:03.682Z,0.83
2022-10-19T12:17:37.966Z,1.00
2022-10-19T12:20:14.878Z,0.70
2022-10-19T12:22:48.590Z,0.60
2022-10-19T12:25:20.651Z,0.40
2022-10-19T12:27:50.863Z,0.77
2022-10-19T12:30:24.664Z,0.90
2022-10-19T12:33:10.162Z,1.50
2022-10-19T12:36:03.465Z,0.67
2022-10-19T12:38:46.122Z,1.00
2022-10-19T12:41:27.749Z,0.73
2022-10-19T12:44:09.397Z,0.97
2022-10-19T12:46:49.630Z,0.93
2022-10-19T12:49:47.767Z,1.27
2022-10-19T12:52:19.918Z,0.80
2022-10-19T12:54:47.944Z,0.83
2022-10-19T12:57:31.623Z,0.70
2022-10-19T13:00:04.131Z,1.30
2022-10-19T13:02:40.366Z,1.57
2022-10-19T13:05:10.551Z,1.10
2022-10-19T13:07:39.342Z,0.70
2022-10-19T13:10:33.460Z,0.90
2022-10-19T13:13:05.250Z,0.83
2022-10-19T13:15:58.917Z,0.70
2022-10-19T13:19:11.323Z,0.70
2022-10-19T13:22:34.744Z,0.90
2022-10-19T13:25:35.502Z,1.13
2022-10-19T13:28:41.488Z,0.77
2022-10-19T13:31:26.042Z,0.80
2022-10-19T13:33:56.905Z,0.63
2022-10-19T13:36:26.675Z,0.80
2022-10-19T13:39:10.827Z,1.10
2022-10-19T13:41:54.548Z,0.90
2022-10-19T13:44:29.424Z,1.00
2022-10-19T13:47:24.153Z,0.73
2022-10-19T13:50:04.774Z,0.70
2022-10-19T13:52:57.889Z,0.70
2022-10-19T13:56:02.217Z,0.80
2022-10-19T13:59:01.892Z,0.80
2022-10-19T14:01:47.097Z,0.90
2022-10-19T14:04:32.734Z,0.70
2022-10-19T14:07:08.170Z,0.80
2022-10-19T14:10:00.350Z,1.00
2022-10-19T14:12:34.305Z,0.83
2022-10-19T14:15:02.388Z,0.87
2022-10-19T14:17:34.837Z,1.40
2022-10-19T14:20:04.264Z,0.73
2022-10-19T14:22:37.079Z,0.90
2022-10-19T14:25:08.680Z,1.10
2022-10-19T14:27:40.679Z,1.43
2022-10-19T14:30:23.655Z,0.63
2022-10-19T14:32:56.797Z,0.87
2022-10-19T14:35:39.976Z,0.90
2022-10-19T14:38:09.857Z,1.00
2022-10-19T14:40:41.485Z,0.70
2022-10-19T14:46:12.188Z,1.43
2022-10-19T14:48:42.033Z,1.27
2022-10-19T14:51:20.232Z,1.10
2022-10-19T14:53:52.451Z,1.00
2022-10-19T14:56:27.194Z,0.70
2022-10-19T14:59:00.299Z,1.13
2022-10-19T15:01:31.984Z,1.10
2022-10-19T15:04:01.160Z,1.20
2022-10-19T15:06:35.861Z,0.90
2022-10-19T15:09:12.067Z,0.97
2022-10-19T15:11:50.500Z,1.07
2022-10-19T15:14:25.187Z,0.90
2022-10-19T15:16:58.256Z,0.80
2022-10-19T15:19:31.066Z,0.70
2022-10-19T15:22:16.385Z,0.73
2022-10-19T15:24:59.109Z,0.73
2022-10-19T15:27:38.896Z,0.77
2022-10-19T15:30:25.503Z,1.37
2022-10-19T15:33:12.975Z,1.00
2022-10-19T15:35:46.331Z,0.97
2022-10-19T15:38:24.017Z,1.20
2022-10-19T15:40:58.996Z,1.10
2022-10-19T15:43:38.853Z,1.07
2022-10-19T15:46:12.463Z,1.17
2022-10-19T15:48:53.839Z,1.17
2022-10-19T15:51:57.920Z,2.50
2022-10-19T15:57:46.833Z,2.33
2022-10-19T16:03:17.056Z,1.67
2022-10-19T16:06:02.249Z,2.03
2022-10-19T16:14:02.366Z,2.40
2022-10-19T16:16:35.824Z,2.17
2022-10-19T16:19:20.280Z,2.03
2022-10-19T16:22:05.745Z,2.10
2022-10-19T16:24:34.814Z,1.60
2022-10-19T16:29:54.375Z,2.70
2022-10-19T16:32:23.578Z,2.30
2022-10-19T16:34:53.784Z,3.27
2022-10-19T16:37:29.357Z,2.67
2022-10-19T16:40:12.940Z,3.70
2022-10-19T16:42:41.658Z,3.50
2022-10-19T16:45:25.876Z,5.17
2022-10-19T16:47:55.512Z,7.23
2022-10-19T16:50:23.566Z,11.87
2022-10-19T16:53:06.991Z,11.03
2022-10-19T16:55:38.059Z,17.37
2022-10-19T16:58:06.988Z,16.57
2022-10-19T17:00:35.587Z,22.70
2022-10-19T17:03:05.282Z,22.77
2022-10-19T17:05:52.459Z,21.13
2022-10-19T17:08:23.907Z,18.97
2022-10-19T17:10:53.805Z,18.47
2022-10-19T17:13:21.291Z,19.03
2022-10-19T17:15:48.782Z,17.67
2022-10-19T17:18:16.277Z,17.00
2022-10-19T17:20:43.716Z,16.23
2022-10-19T17:23:11.198Z,16.17
2022-10-19T17:25:47.483Z,15.30
2022-10-19T17:28:14.910Z,17.33
2022-10-19T17:30:42.631Z,16.73
2022-10-19T17:33:10.051Z,16.27
2022-10-19T17:35:37.526Z,17.23
2022-10-19T17:38:05.001Z,18.23
2022-10-19T17:40:33.501Z,17.93
2022-10-19T17:43:02.326Z,17.30
2022-10-19T17:45:29.807Z,19.30
2022-10-19T17:47:57.625Z,19.13
2022-10-19T17:50:25.042Z,20.43
2022-10-19T17:52:52.505Z,19.67
2022-10-19T17:55:20.033Z,19.67
2022-10-19T17:57:47.511Z,20.67
2022-10-19T18:00:16.679Z,19.33
2022-10-19T18:02:45.633Z,21.20
2022-10-19T18:05:13.327Z,22.00
2022-10-19T18:07:40.863Z,21.67
2022-10-19T18:10:08.976Z,21.33
2022-10-19T18:12:36.428Z,21.63
2022-10-19T18:15:04.189Z,22.33
2022-10-19T18:17:32.970Z,21.30
2022-10-19T18:20:00.406Z,18.33
2022-10-19T18:22:27.885Z,16.67
2022-10-19T18:24:55.400Z,14.47
2022-10-19T18:27:22.950Z,13.87
2022-10-19T18:29:50.402Z,15.00
2022-10-19T18:32:18.091Z,15.90
2022-10-19T18:34:47.000Z,16.43
2022-10-19T18:37:14.462Z,14.17
2022-10-19T18:39:41.877Z,13.80
2022-10-19T18:42:12.028Z,15.10
2022-10-19T18:44:39.558Z,16.30
2022-10-19T18:47:07.035Z,14.67
2022-10-19T18:49:34.800Z,13.37
2022-10-19T18:52:03.592Z,13.43
2022-10-19T18:54:31.034Z,13.30
2022-10-19T18:56:58.586Z,9.87
2022-10-19T18:59:29.014Z,8.70
2022-10-19T19:01:56.512Z,6.57
2022-10-19T19:04:23.995Z,6.27
2022-10-19T19:06:51.638Z,5.13
2022-10-19T19:09:21.179Z,5.60
2022-10-19T19:11:48.735Z,5.20
2022-10-19T19:14:20.851Z,4.33
2022-10-19T19:16:48.657Z,4.80
2022-10-19T19:19:18.506Z,5.30
2022-10-19T19:21:47.361Z,4.30
2022-10-19T19:24:17.638Z,4.40
2022-10-19T19:26:50.107Z,4.00
2022-10-19T19:29:18.784Z,4.17
2022-10-19T19:31:47.184Z,4.63
2022-10-19T19:34:15.096Z,4.57
2022-10-19T19:36:47.499Z,4.70
2022-10-19T19:39:16.870Z,5.07
2022-10-19T19:41:46.198Z,5.03
2022-10-19T19:44:14.049Z,5.00
2022-10-19T19:46:41.661Z,4.43
2022-10-19T19:49:09.123Z,3.60
2022-10-19T19:51:37.209Z,4.33
2022-10-19T19:54:05.623Z,4.40
2022-10-19T19:56:33.527Z,4.10
2022-10-19T19:59:04.410Z,3.83
2022-10-19T20:01:32.986Z,4.90
2022-10-19T20:06:37.534Z,4.60
2022-10-19T20:09:06.301Z,4.53
2022-10-19T20:11:41.855Z,3.73
2022-10-19T20:14:11.644Z,3.17
2022-10-19T20:16:39.239Z,3.70
2022-10-19T20:19:08.363Z,3.47
2022-10-19T20:21:36.333Z,3.53
2022-10-19T20:24:04.655Z,3.83
2022-10-19T20:26:32.725Z,3.90
2022-10-19T20:29:02.252Z,3.63
2022-10-19T20:31:31.857Z,4.17
2022-10-19T20:33:59.421Z,3.70
2022-10-19T20:36:27.606Z,4.63
2022-10-19T20:38:57.312Z,4.43
2022-10-19T20:41:27.239Z,5.20
2022-10-19T20:43:55.913Z,4.90
2022-10-19T20:46:24.997Z,4.90
2022-10-19T20:48:54.733Z,4.30
2022-10-19T20:51:27.460Z,4.43
2022-10-19T20:53:59.462Z,4.73
2022-10-19T20:56:28.963Z,4.30
2022-10-19T20:58:57.182Z,4.40
2022-10-19T21:01:25.411Z,5.40
2022-10-19T21:03:55.934Z,5.20
2022-10-19T21:06:24.990Z,5.50
2022-10-19T21:08:53.327Z,5.40
2022-10-19T21:11:22.630Z,4.90
2022-10-19T21:13:54.361Z,4.80
2022-10-19T21:16:23.305Z,5.43
2022-10-19T21:18:51.558Z,5.00
2022-10-19T21:21:24.872Z,4.57
2022-10-19T21:23:57.291Z,4.20
2022-10-19T21:26:26.111Z,4.50
2022-10-19T21:28:54.059Z,3.90
2022-10-19T21:31:23.017Z,3.53
2022-10-19T21:33:50.826Z,3.93
2022-10-19T21:36:21.114Z,3.20
2022-10-19T21:38:49.236Z,3.97
2022-10-19T21:41:20.898Z,3.77
2022-10-19T21:43:51.533Z,3.90
2022-10-19T21:46:20.835Z,3.40
2022-10-19T21:48:48.969Z,3.83
2022-10-19T21:51:23.610Z,3.93
2022-10-19T21:53:51.147Z,3.47
2022-10-19T21:56:18.718Z,3.80
2022-10-19T21:58:46.961Z,3.37
2022-10-19T22:01:15.348Z,4.03
2022-10-19T22:03:42.968Z,3.40
2022-10-19T22:06:10.587Z,4.07
2022-10-19T22:08:40.665Z,3.60
2022-10-19T22:11:10.382Z,5.07
2022-10-19T22:13:38.434Z,3.90
2022-10-19T22:16:06.552Z,3.93
2022-10-19T22:18:34.228Z,3.60
2022-10-19T22:21:04.077Z,3.87
2022-10-19T22:23:31.659Z,3.80
2022-10-19T22:26:00.451Z,3.63
2022-10-19T22:28:28.624Z,3.40
2022-10-19T22:30:57.129Z,3.57
2022-10-19T22:33:25.428Z,3.97
2022-10-19T22:35:57.755Z,3.20
2022-10-19T22:38:25.670Z,3.50
2022-10-19T22:40:53.244Z,3.57
2022-10-19T22:43:22.359Z,3.37
2022-10-19T22:45:50.250Z,3.60
2022-10-19T22:48:18.894Z,3.53
2022-10-19T22:50:47.030Z,3.40
2022-10-19T22:53:14.696Z,3.37
2022-10-19T22:55:42.351Z,2.83
2022-10-19T23:00:44.123Z,8.20
2022-10-19T23:03:12.112Z,3.47
2022-10-19T23:05:39.757Z,3.00
2022-10-19T23:08:07.411Z,2.90
2022-10-19T23:10:35.072Z,2.67
2022-10-19T23:13:02.670Z,2.40
2022-10-19T23:15:30.294Z,2.70
2022-10-19T23:18:00.111Z,3.10
2022-10-19T23:20:27.735Z,2.80
2022-10-19T23:22:57.916Z,3.10
2022-10-19T23:25:25.554Z,2.60
2022-10-19T23:27:53.422Z,2.57
2022-10-19T23:30:21.076Z,2.40
2022-10-19T23:32:48.904Z,2.47
2022-10-19T23:35:17.941Z,2.43
2022-10-19T23:37:45.556Z,2.43
2022-10-19T23:40:13.335Z,2.33
2022-10-19T23:42:40.829Z,2.53
2022-10-19T23:45:09.130Z,2.77
2022-10-19T23:47:36.958Z,2.70
2022-10-19T23:50:04.897Z,2.10
2022-10-19T23:52:33.639Z,2.43
2022-10-19T23:55:01.415Z,2.17
2022-10-19T23:57:28.902Z,2.70
2022-10-19T23:59:56.339Z,2.27
